sensor_id;sensor_type;location;lat;lon;timestamp;pressure;altitude;pressure_sealevel;temperature;humidity
69630;BME280;56857;52.212;5.496;2022-12-31T00:01:24;100296.81;;;11.22;100.00
69630;BME280;56857;52.212;5.496;2022-12-31T00:03:51;100294.81;;;11.24;100.00
69630;BME280;56857;52.212;5.496;2022-12-31T00:06:24;100291.13;;;11.25;100.00
69630;BME280;56857;52.212;5.496;2022-12-31T00:08:51;100296.25;;;11.27;100.00
69630;BME280;56857;52.212;5.496;2022-12-31T00:11:19;100295.25;;;11.28;100.00
69630;BME280;56857;52.212;5.496;2022-12-31T00:13:49;100293.41;;;11.28;100.00
69630;BME280;56857;52.212;5.496;2022-12-31T00:16:22;100292.41;;;11.29;100.00
69630;BME280;56857;52.212;5.496;2022-12-31T00:18:56;100293.88;;;11.32;100.00
69630;BME280;56857;52.212;5.496;2022-12-31T00:21:26;100301.47;;;11.35;100.00
69630;BME280;56857;52.212;5.496;2022-12-31T00:23:53;100289.19;;;11.34;100.00
69630;BME280;56857;52.212;5.496;2022-12-31T00:26:22;100306.13;;;11.33;100.00
69630;BME280;56857;52.212;5.496;2022-12-31T00:28:49;100303.84;;;11.30;100.00
69630;BME280;56857;52.212;5.496;2022-12-31T00:31:21;100307.69;;;11.27;100.00
69630;BME280;56857;52.212;5.496;2022-12-31T00:33:48;100308.50;;;11.28;100.00
69630;BME280;56857;52.212;5.496;2022-12-31T00:36:17;100297.28;;;11.26;100.00
69630;BME280;56857;52.212;5.496;2022-12-31T00:38:47;100302.75;;;11.24;100.00
69630;BME280;56857;52.212;5.496;2022-12-31T00:41:15;100313.22;;;11.26;100.00
69630;BME280;56857;52.212;5.496;2022-12-31T00:43:42;100308.88;;;11.25;100.00
69630;BME280;56857;52.212;5.496;2022-12-31T00:46:08;100306.44;;;11.23;100.00
69630;BME280;56857;52.212;5.496;2022-12-31T00:48:36;100309.91;;;11.24;100.00
69630;BME280;56857;52.212;5.496;2022-12-31T00:51:04;100308.88;;;11.25;100.00
69630;BME280;56857;52.212;5.496;2022-12-31T00:53:32;100314.84;;;11.27;100.00
69630;BME280;56857;52.212;5.496;2022-12-31T00:56:14;100297.66;;;11.23;100.00
69630;BME280;56857;52.212;5.496;2022-12-31T00:58:43;100306.44;;;11.23;100.00
69630;BME280;56857;52.212;5.496;2022-12-31T01:01:20;100301.94;;;11.24;100.00
69630;BME280;56857;52.212;5.496;2022-12-31T01:03:56;100308.44;;;11.21;100.00
69630;BME280;56857;52.212;5.496;2022-12-31T01:06:23;100304.97;;;11.21;100.00
69630;BME280;56857;52.212;5.496;2022-12-31T01:08:51;100306.81;;;11.20;100.00
69630;BME280;56857;52.212;5.496;2022-12-31T01:11:17;100304.97;;;11.21;100.00
69630;BME280;56857;52.212;5.496;2022-12-31T01:13:48;100303.34;;;11.20;100.00
69630;BME280;56857;52.212;5.496;2022-12-31T01:16:15;100302.31;;;11.21;100.00
69630;BME280;56857;52.212;5.496;2022-12-31T01:18:41;100305.78;;;11.21;100.00
69630;BME280;56857;52.212;5.496;2022-12-31T01:21:09;100297.84;;;11.21;100.00
69630;BME280;56857;52.212;5.496;2022-12-31T01:23:38;100306.00;;;11.20;100.00
69630;BME280;56857;52.212;5.496;2022-12-31T01:26:06;100306.81;;;11.20;100.00
69630;BME280;56857;52.212;5.496;2022-12-31T01:28:34;100309.25;;;11.22;100.00
69630;BME280;56857;52.212;5.496;2022-12-31T01:31:07;100311.91;;;11.22;100.00
69630;BME280;56857;52.212;5.496;2022-12-31T01:33:35;100309.09;;;11.23;100.00
69630;BME280;56857;52.212;5.496;2022-12-31T01:36:06;100317.22;;;11.22;100.00
69630;BME280;56857;52.212;5.496;2022-12-31T01:38:34;100319.41;;;11.18;100.00
69630;BME280;56857;52.212;5.496;2022-12-31T01:41:01;100317.78;;;11.17;100.00
69630;BME280;56857;52.212;5.496;2022-12-31T01:46:19;100315.69;;;11.12;100.00
69630;BME280;56857;52.212;5.496;2022-12-31T01:48:50;100320.38;;;11.10;100.00
69630;BME280;56857;52.212;5.496;2022-12-31T01:51:19;100315.22;;;11.09;100.00
69630;BME280;56857;52.212;5.496;2022-12-31T01:53:46;100322.38;;;11.08;100.00
69630;BME280;56857;52.212;5.496;2022-12-31T01:56:13;100306.44;;;11.08;100.00
69630;BME280;56857;52.212;5.496;2022-12-31T01:58:46;100319.06;;;11.06;100.00
69630;BME280;56857;52.212;5.496;2022-12-31T02:01:28;100325.41;;;11.05;100.00
69630;BME280;56857;52.212;5.496;2022-12-31T02:03:55;100326.78;;;11.01;100.00
69630;BME280;56857;52.212;5.496;2022-12-31T02:06:27;100323.31;;;11.01;100.00
69630;BME280;56857;52.212;5.496;2022-12-31T02:09:00;100337.56;;;11.00;100.00
69630;BME280;56857;52.212;5.496;2022-12-31T02:11:29;100334.09;;;10.99;100.00
69630;BME280;56857;52.212;5.496;2022-12-31T02:13:59;100328.78;;;10.99;100.00
69630;BME280;56857;52.212;5.496;2022-12-31T02:16:37;100321.84;;;10.98;100.00
69630;BME280;56857;52.212;5.496;2022-12-31T02:30:16;100287.94;;;10.79;100.00
69630;BME280;56857;52.212;5.496;2022-12-31T02:33:01;100288.94;;;10.78;100.00
69630;BME280;56857;52.212;5.496;2022-12-31T02:35:45;100279.16;;;10.78;100.00
69630;BME280;56857;52.212;5.496;2022-12-31T02:38:18;100275.66;;;10.78;100.00
69630;BME280;56857;52.212;5.496;2022-12-31T02:40:45;100264.44;;;10.76;100.00
69630;BME280;56857;52.212;5.496;2022-12-31T02:43:11;100254.81;;;10.75;100.00
69630;BME280;56857;52.212;5.496;2022-12-31T02:45:44;100275.41;;;10.73;100.00
69630;BME280;56857;52.212;5.496;2022-12-31T02:51:01;100288.09;;;10.77;100.00
69630;BME280;56857;52.212;5.496;2022-12-31T02:59:25;100314.25;;;10.80;100.00
69630;BME280;56857;52.212;5.496;2022-12-31T03:01:58;100320.75;;;10.78;100.00
69630;BME280;56857;52.212;5.496;2022-12-31T03:04:27;100322.41;;;10.79;100.00
69630;BME280;56857;52.212;5.496;2022-12-31T03:06:54;100336.28;;;10.81;100.00
69630;BME280;56857;52.212;5.496;2022-12-31T03:09:22;100325.88;;;10.79;100.00
69630;BME280;56857;52.212;5.496;2022-12-31T03:11:50;100339.50;;;10.76;100.00
69630;BME280;56857;52.212;5.496;2022-12-31T03:14:17;100336.03;;;10.76;100.00
69630;BME280;56857;52.212;5.496;2022-12-31T03:16:43;100331.72;;;10.75;100.00
69630;BME280;56857;52.212;5.496;2022-12-31T03:19:09;100322.78;;;10.76;100.00
69630;BME280;56857;52.212;5.496;2022-12-31T03:21:37;100327.25;;;10.75;100.00
69630;BME280;56857;52.212;5.496;2022-12-31T03:24:03;100338.03;;;10.74;100.00
69630;BME280;56857;52.212;5.496;2022-12-31T03:26:29;100331.47;;;10.70;100.00
69630;BME280;56857;52.212;5.496;2022-12-31T03:28:55;100326.53;;;10.66;100.00
69630;BME280;56857;52.212;5.496;2022-12-31T03:31:23;100329.53;;;10.63;100.00
69630;BME280;56857;52.212;5.496;2022-12-31T03:33:57;100338.00;;;10.59;100.00
69630;BME280;56857;52.212;5.496;2022-12-31T03:36:24;100336.22;;;10.59;100.00
69630;BME280;56857;52.212;5.496;2022-12-31T03:38:56;100342.50;;;10.58;100.00
69630;BME280;56857;52.212;5.496;2022-12-31T03:41:22;100345.16;;;10.58;100.00
69630;BME280;56857;52.212;5.496;2022-12-31T03:43:50;100338.22;;;10.57;100.00
69630;BME280;56857;52.212;5.496;2022-12-31T03:46:16;100344.31;;;10.58;100.00
69630;BME280;56857;52.212;5.496;2022-12-31T03:48:43;100334.09;;;10.55;100.00
69630;BME280;56857;52.212;5.496;2022-12-31T03:51:09;100332.91;;;10.57;100.00
69630;BME280;56857;52.212;5.496;2022-12-31T03:53:36;100319.00;;;10.55;100.00
69630;BME280;56857;52.212;5.496;2022-12-31T03:56:02;100310.88;;;10.57;100.00
69630;BME280;56857;52.212;5.496;2022-12-31T03:58:29;100320.47;;;10.58;100.00
69630;BME280;56857;52.212;5.496;2022-12-31T04:00:54;100325.31;;;10.54;100.00
69630;BME280;56857;52.212;5.496;2022-12-31T04:03:23;100333.44;;;10.53;100.00
69630;BME280;56857;52.212;5.496;2022-12-31T04:05:53;100329.81;;;10.54;100.00
69630;BME280;56857;52.212;5.496;2022-12-31T04:08:20;100316.56;;;10.54;100.00
69630;BME280;56857;52.212;5.496;2022-12-31T04:10:46;100304.66;;;10.50;100.00
69630;BME280;56857;52.212;5.496;2022-12-31T04:13:12;100312.78;;;10.48;100.00
69630;BME280;56857;52.212;5.496;2022-12-31T04:15:38;100296.59;;;10.43;100.00
69630;BME280;56857;52.212;5.496;2022-12-31T04:18:05;100283.91;;;10.38;100.00
69630;BME280;56857;52.212;5.496;2022-12-31T04:20:31;100300.16;;;10.35;100.00
69630;BME280;56857;52.212;5.496;2022-12-31T04:22:57;100300.34;;;10.34;100.00
69630;BME280;56857;52.212;5.496;2022-12-31T04:25:23;100303.19;;;10.32;100.00
69630;BME280;56857;52.212;5.496;2022-12-31T04:27:54;100283.00;;;10.31;100.00
69630;BME280;56857;52.212;5.496;2022-12-31T04:30:21;100292.75;;;10.31;100.00
69630;BME280;56857;52.212;5.496;2022-12-31T04:32:49;100297.22;;;10.30;100.00
69630;BME280;56857;52.212;5.496;2022-12-31T04:35:16;100298.06;;;10.31;100.00
69630;BME280;56857;52.212;5.496;2022-12-31T04:37:42;100301.72;;;10.30;100.00
69630;BME280;56857;52.212;5.496;2022-12-31T04:40:08;100300.53;;;10.32;100.00
69630;BME280;56857;52.212;5.496;2022-12-31T04:42:35;100302.53;;;10.30;100.00
69630;BME280;56857;52.212;5.496;2022-12-31T04:45:01;100301.09;;;10.28;100.00
69630;BME280;56857;52.212;5.496;2022-12-31T04:47:33;100306.38;;;10.28;100.00
69630;BME280;56857;52.212;5.496;2022-12-31T04:49:59;100310.03;;;10.27;100.00
69630;BME280;56857;52.212;5.496;2022-12-31T04:52:31;100313.66;;;10.26;100.00
69630;BME280;56857;52.212;5.496;2022-12-31T04:54:58;100319.78;;;10.26;100.00
69630;BME280;56857;52.212;5.496;2022-12-31T04:57:28;100323.44;;;10.25;100.00
69630;BME280;56857;52.212;5.496;2022-12-31T04:59:56;100312.00;;;10.25;100.00
69630;BME280;56857;52.212;5.496;2022-12-31T05:02:29;100315.84;;;10.22;100.00
69630;BME280;56857;52.212;5.496;2022-12-31T05:04:55;100316.66;;;10.23;100.00
69630;BME280;56857;52.212;5.496;2022-12-31T05:07:28;100304.22;;;10.23;100.00
69630;BME280;56857;52.212;5.496;2022-12-31T05:09:55;100302.41;;;10.24;100.00
69630;BME280;56857;52.212;5.496;2022-12-31T05:12:23;100306.72;;;10.25;100.00
69630;BME280;56857;52.212;5.496;2022-12-31T05:14:49;100313.00;;;10.24;100.00
69630;BME280;56857;52.212;5.496;2022-12-31T05:17:16;100319.31;;;10.23;100.00
69630;BME280;56857;52.212;5.496;2022-12-31T05:19:43;100314.00;;;10.23;100.00
69630;BME280;56857;52.212;5.496;2022-12-31T05:22:09;100304.44;;;10.21;100.00
69630;BME280;56857;52.212;5.496;2022-12-31T05:24:35;100310.53;;;10.22;100.00
69630;BME280;56857;52.212;5.496;2022-12-31T05:27:03;100310.72;;;10.20;100.00
69630;BME280;56857;52.212;5.496;2022-12-31T05:29:30;100308.88;;;10.21;100.00
69630;BME280;56857;52.212;5.496;2022-12-31T05:31:57;100313.34;;;10.20;100.00
69630;BME280;56857;52.212;5.496;2022-12-31T05:34:23;100319.47;;;10.21;100.00
69630;BME280;56857;52.212;5.496;2022-12-31T05:36:49;100316.66;;;10.23;100.00
69630;BME280;56857;52.212;5.496;2022-12-31T05:39:15;100315.84;;;10.22;100.00
69630;BME280;56857;52.212;5.496;2022-12-31T05:41:42;100321.50;;;10.19;100.00
69630;BME280;56857;52.212;5.496;2022-12-31T05:44:09;100324.97;;;10.19;100.00
69630;BME280;56857;52.212;5.496;2022-12-31T05:46:35;100324.97;;;10.19;100.00
69630;BME280;56857;52.212;5.496;2022-12-31T05:49:01;100323.13;;;10.20;100.00
69630;BME280;56857;52.212;5.496;2022-12-31T05:51:27;100319.47;;;10.21;100.00
69630;BME280;56857;52.212;5.496;2022-12-31T05:53:54;100306.22;;;10.21;100.00
69630;BME280;56857;52.212;5.496;2022-12-31T05:56:20;100305.25;;;10.22;100.00
69630;BME280;56857;52.212;5.496;2022-12-31T05:58:47;100311.34;;;10.23;100.00
69630;BME280;56857;52.212;5.496;2022-12-31T06:01:15;100319.97;;;10.25;100.00
69630;BME280;56857;52.212;5.496;2022-12-31T06:03:41;100318.78;;;10.27;100.00
69630;BME280;56857;52.212;5.496;2022-12-31T06:06:07;100318.63;;;10.29;100.00
69630;BME280;56857;52.212;5.496;2022-12-31T06:08:33;100310.47;;;10.30;100.00
69630;BME280;56857;52.212;5.496;2022-12-31T06:11:01;100317.25;;;10.33;100.00
69630;BME280;56857;52.212;5.496;2022-12-31T06:13:29;100312.41;;;10.36;100.00
69630;BME280;56857;52.212;5.496;2022-12-31T06:15:56;100322.66;;;10.39;100.00
69630;BME280;56857;52.212;5.496;2022-12-31T06:18:22;100316.97;;;10.42;100.00
69630;BME280;56857;52.212;5.496;2022-12-31T06:20:48;100318.66;;;10.43;100.00
69630;BME280;56857;52.212;5.496;2022-12-31T06:23:14;100315.81;;;10.45;100.00
69630;BME280;56857;52.212;5.496;2022-12-31T06:25:42;100323.41;;;10.48;100.00
69630;BME280;56857;52.212;5.496;2022-12-31T06:28:08;100314.44;;;10.49;100.00
69630;BME280;56857;52.212;5.496;2022-12-31T06:30:34;100315.91;;;10.52;100.00
69630;BME280;56857;52.212;5.496;2022-12-31T06:33:02;100315.72;;;10.53;100.00
69630;BME280;56857;52.212;5.496;2022-12-31T06:35:30;100325.13;;;10.56;100.00
69630;BME280;56857;52.212;5.496;2022-12-31T06:37:56;100320.47;;;10.58;100.00
69630;BME280;56857;52.212;5.496;2022-12-31T06:40:22;100337.03;;;10.60;100.00
69630;BME280;56857;52.212;5.496;2022-12-31T06:42:48;100339.47;;;10.61;100.00
69630;BME280;56857;52.212;5.496;2022-12-31T06:45:14;100342.78;;;10.63;100.00
69630;BME280;56857;52.212;5.496;2022-12-31T06:47:40;100339.94;;;10.65;100.00
69630;BME280;56857;52.212;5.496;2022-12-31T06:50:12;100338.59;;;10.69;100.00
69630;BME280;56857;52.212;5.496;2022-12-31T06:52:38;100332.06;;;10.72;100.00
69630;BME280;56857;52.212;5.496;2022-12-31T06:55:04;100338.69;;;10.76;100.00
69630;BME280;56857;52.212;5.496;2022-12-31T06:57:30;100335.66;;;10.79;100.00
69630;BME280;56857;52.212;5.496;2022-12-31T06:59:57;100346.34;;;10.85;100.00
69630;BME280;56857;52.212;5.496;2022-12-31T07:05:20;100339.31;;;10.93;100.00
69630;BME280;56857;52.212;5.496;2022-12-31T07:08:04;100339.59;;;10.98;100.00
69630;BME280;56857;52.212;5.496;2022-12-31T07:11:14;100334.53;;;11.03;100.00
69630;BME280;56857;52.212;5.496;2022-12-31T07:19:27;100319.25;;;11.20;100.00
69630;BME280;56857;52.212;5.496;2022-12-31T07:21:57;100327.66;;;11.23;100.00
69630;BME280;56857;52.212;5.496;2022-12-31T07:24:24;100321.78;;;11.28;100.00
69630;BME280;56857;52.212;5.496;2022-12-31T07:27:00;100331.19;;;11.30;100.00
69630;BME280;56857;52.212;5.496;2022-12-31T07:35:21;100332.44;;;11.49;100.00
69630;BME280;56857;52.212;5.496;2022-12-31T07:46:56;100346.13;;;11.68;100.00
69630;BME280;56857;52.212;5.496;2022-12-31T07:49:24;100341.69;;;11.75;100.00
69630;BME280;56857;52.212;5.496;2022-12-31T07:51:52;100355.22;;;11.80;100.00
69630;BME280;56857;52.212;5.496;2022-12-31T07:54:18;100342.56;;;11.82;100.00
69630;BME280;56857;52.212;5.496;2022-12-31T07:56:44;100343.06;;;11.86;100.00
69630;BME280;56857;52.212;5.496;2022-12-31T08:02:25;100363.72;;;11.90;100.00
69630;BME280;56857;52.212;5.496;2022-12-31T08:13:16;100365.69;;;12.03;100.00
69630;BME280;56857;52.212;5.496;2022-12-31T08:15:43;100350.78;;;12.02;100.00
69630;BME280;56857;52.212;5.496;2022-12-31T08:18:09;100356.50;;;12.05;100.00
69630;BME280;56857;52.212;5.496;2022-12-31T08:26:17;100376.56;;;12.08;100.00
69630;BME280;56857;52.212;5.496;2022-12-31T08:28:58;100383.34;;;12.11;100.00
69630;BME280;56857;52.212;5.496;2022-12-31T08:31:29;100374.72;;;12.09;100.00
69630;BME280;56857;52.212;5.496;2022-12-31T08:34:24;100369.41;;;12.09;100.00
69630;BME280;56857;52.212;5.496;2022-12-31T08:37:02;100369.41;;;12.09;100.00
69630;BME280;56857;52.212;5.496;2022-12-31T08:42:04;100413.78;;;12.08;100.00
69630;BME280;56857;52.212;5.496;2022-12-31T08:45:07;100418.06;;;12.09;100.00
69630;BME280;56857;52.212;5.496;2022-12-31T08:47:57;100426.84;;;12.10;100.00
69630;BME280;56857;52.212;5.496;2022-12-31T08:50:25;100433.84;;;12.11;100.00
69630;BME280;56857;52.212;5.496;2022-12-31T08:52:51;100446.25;;;12.10;100.00
69630;BME280;56857;52.212;5.496;2022-12-31T08:55:17;100454.06;;;12.12;100.00
69630;BME280;56857;52.212;5.496;2022-12-31T09:00:19;100462.22;;;12.10;100.00
69630;BME280;56857;52.212;5.496;2022-12-31T09:05:55;100474.66;;;12.10;100.00
69630;BME280;56857;52.212;5.496;2022-12-31T09:11:04;100474.88;;;12.08;100.00
69630;BME280;56857;52.212;5.496;2022-12-31T09:16:19;100474.22;;;12.06;100.00
69630;BME280;56857;52.212;5.496;2022-12-31T09:18:51;100478.53;;;12.07;100.00
69630;BME280;56857;52.212;5.496;2022-12-31T09:21:17;100477.91;;;12.05;100.00
69630;BME280;56857;52.212;5.496;2022-12-31T09:23:50;100487.34;;;12.08;100.00
69630;BME280;56857;52.212;5.496;2022-12-31T09:29:03;100507.00;;;12.13;100.00
69630;BME280;56857;52.212;5.496;2022-12-31T09:34:19;100485.00;;;12.19;100.00
69630;BME280;56857;52.212;5.496;2022-12-31T09:36:51;100488.94;;;12.23;100.00
69630;BME280;56857;52.212;5.496;2022-12-31T09:39:41;100482.41;;;12.26;100.00
69630;BME280;56857;52.212;5.496;2022-12-31T09:54:13;100506.47;;;12.39;100.00
69630;BME280;56857;52.212;5.496;2022-12-31T09:59:38;100502.59;;;12.42;100.00
69630;BME280;56857;52.212;5.496;2022-12-31T10:04:55;100493.03;;;12.47;100.00
69630;BME280;56857;52.212;5.496;2022-12-31T10:07:45;100489.56;;;12.47;100.00
69630;BME280;56857;52.212;5.496;2022-12-31T10:16:04;100497.22;;;12.57;100.00
69630;BME280;56857;52.212;5.496;2022-12-31T10:21:27;100509.75;;;12.63;100.00
69630;BME280;56857;52.212;5.496;2022-12-31T10:24:28;100503.41;;;12.64;100.00
69630;BME280;56857;52.212;5.496;2022-12-31T10:29:53;100482.84;;;12.72;100.00
69630;BME280;56857;52.212;5.496;2022-12-31T10:32:41;100492.28;;;12.75;100.00
69630;BME280;56857;52.212;5.496;2022-12-31T10:37:50;100502.78;;;12.83;100.00
69630;BME280;56857;52.212;5.496;2022-12-31T10:51:48;100502.13;;;13.03;100.00
69630;BME280;56857;52.212;5.496;2022-12-31T10:57:55;100497.25;;;13.13;100.00
69630;BME280;56857;52.212;5.496;2022-12-31T11:00:29;100505.69;;;13.16;100.00
69630;BME280;56857;52.212;5.496;2022-12-31T11:03:41;100501.59;;;13.20;100.00
69630;BME280;56857;52.212;5.496;2022-12-31T11:09:14;100489.31;;;13.19;100.00
69630;BME280;56857;52.212;5.496;2022-12-31T11:23:29;100513.09;;;13.21;100.00
69630;BME280;56857;52.212;5.496;2022-12-31T11:43:14;100519.03;;;13.23;100.00
69630;BME280;56857;52.212;5.496;2022-12-31T11:48:18;100519.03;;;13.23;100.00
69630;BME280;56857;52.212;5.496;2022-12-31T11:56:32;100510.03;;;13.24;100.00
69630;BME280;56857;52.212;5.496;2022-12-31T11:59:00;100510.69;;;13.26;100.00
69630;BME280;56857;52.212;5.496;2022-12-31T12:01:38;100515.81;;;13.28;100.00
69630;BME280;56857;52.212;5.496;2022-12-31T12:04:09;100518.09;;;13.31;100.00
69630;BME280;56857;52.212;5.496;2022-12-31T12:06:35;100505.78;;;13.30;100.00
69630;BME280;56857;52.212;5.496;2022-12-31T12:09:05;100498.44;;;13.32;100.00
69630;BME280;56857;52.212;5.496;2022-12-31T12:11:36;100503.75;;;13.32;100.00
69630;BME280;56857;52.212;5.496;2022-12-31T12:14:37;100506.59;;;13.30;100.00
69630;BME280;56857;52.212;5.496;2022-12-31T12:17:24;100497.63;;;13.31;100.00
69630;BME280;56857;52.212;5.496;2022-12-31T12:19:55;100488.44;;;13.34;100.00
69630;BME280;56857;52.212;5.496;2022-12-31T12:22:29;100489.44;;;13.33;100.00
69630;BME280;56857;52.212;5.496;2022-12-31T12:25:01;100492.50;;;13.36;100.00
69630;BME280;56857;52.212;5.496;2022-12-31T12:27:31;100497.03;;;13.36;100.00
69630;BME280;56857;52.212;5.496;2022-12-31T12:30:22;100494.75;;;13.33;100.00
69630;BME280;56857;52.212;5.496;2022-12-31T12:32:57;100487.59;;;13.33;100.00
69630;BME280;56857;52.212;5.496;2022-12-31T12:35:27;100497.81;;;13.30;100.00
69630;BME280;56857;52.212;5.496;2022-12-31T12:38:04;100494.53;;;13.28;100.00
69630;BME280;56857;52.212;5.496;2022-12-31T12:40:31;100510.50;;;13.28;100.00
69630;BME280;56857;52.212;5.496;2022-12-31T12:42:57;100492.06;;;13.26;100.00
69630;BME280;56857;52.212;5.496;2022-12-31T12:45:24;100479.91;;;13.23;100.00
69630;BME280;56857;52.212;5.496;2022-12-31T12:48:00;100480.75;;;13.24;100.00
69630;BME280;56857;52.212;5.496;2022-12-31T12:50:44;100484.06;;;13.26;100.00
69630;BME280;56857;52.212;5.496;2022-12-31T13:01:03;100495.34;;;13.28;100.00
69630;BME280;56857;52.212;5.496;2022-12-31T13:06:26;100513.97;;;13.28;100.00
69630;BME280;56857;52.212;5.496;2022-12-31T13:11:50;100520.56;;;13.32;100.00
69630;BME280;56857;52.212;5.496;2022-12-31T13:14:32;100526.09;;;13.31;100.00
69630;BME280;56857;52.212;5.496;2022-12-31T13:20:17;100529.56;;;13.31;100.00
69630;BME280;56857;52.212;5.496;2022-12-31T13:23:00;100532.22;;;13.31;100.00
69630;BME280;56857;52.212;5.496;2022-12-31T13:28:06;100526.09;;;13.31;100.00
69630;BME280;56857;52.212;5.496;2022-12-31T13:30:38;100533.22;;;13.30;100.00
69630;BME280;56857;52.212;5.496;2022-12-31T13:33:25;100528.13;;;13.29;100.00
69630;BME280;56857;52.212;5.496;2022-12-31T13:36:00;100537.31;;;13.26;100.00
69630;BME280;56857;52.212;5.496;2022-12-31T13:38:35;100522.50;;;13.23;100.00
69630;BME280;56857;52.212;5.496;2022-12-31T13:48:51;100530.28;;;13.18;100.00
69630;BME280;56857;52.212;5.496;2022-12-31T13:54:00;100536.16;;;13.14;100.00
69630;BME280;56857;52.212;5.496;2022-12-31T13:56:35;100541.31;;;13.15;100.00
69630;BME280;56857;52.212;5.496;2022-12-31T14:01:35;100547.44;;;13.16;100.00
69630;BME280;56857;52.212;5.496;2022-12-31T14:04:07;100535.97;;;13.15;100.00
69630;BME280;56857;52.212;5.496;2022-12-31T14:06:48;100542.13;;;13.16;100.00
69630;BME280;56857;52.212;5.496;2022-12-31T14:09:21;100538.44;;;13.17;100.00
69630;BME280;56857;52.212;5.496;2022-12-31T14:17:25;100537.44;;;13.18;100.00
69630;BME280;56857;52.212;5.496;2022-12-31T14:25:28;100531.84;;;13.13;100.00
69630;BME280;56857;52.212;5.496;2022-12-31T14:27:56;100538.00;;;13.13;100.00
69630;BME280;56857;52.212;5.496;2022-12-31T14:30:31;100530.22;;;13.12;100.00
69630;BME280;56857;52.212;5.496;2022-12-31T14:33:33;100549.66;;;13.12;100.00
69630;BME280;56857;52.212;5.496;2022-12-31T14:50:07;100575.03;;;13.08;100.00
69630;BME280;56857;52.212;5.496;2022-12-31T14:52:50;100573.38;;;13.07;100.00
69630;BME280;56857;52.212;5.496;2022-12-31T14:57:45;100579.88;;;13.05;100.00
69630;BME280;56857;52.212;5.496;2022-12-31T15:03:00;100584.78;;;13.01;100.00
69630;BME280;56857;52.212;5.496;2022-12-31T15:05:35;100592.16;;;12.99;100.00
69630;BME280;56857;52.212;5.496;2022-12-31T15:10:52;100610.13;;;12.97;100.00
69630;BME280;56857;52.212;5.496;2022-12-31T15:24:25;100582.00;;;12.88;100.00
69630;BME280;56857;52.212;5.496;2022-12-31T15:26:57;100575.03;;;12.87;100.00
69630;BME280;56857;52.212;5.496;2022-12-31T15:31:53;100574.13;;;12.80;100.00
69630;BME280;56857;52.212;5.496;2022-12-31T15:34:29;100568.22;;;12.78;100.00
69630;BME280;56857;52.212;5.496;2022-12-31T15:36:58;100565.72;;;12.76;100.00
69630;BME280;56857;52.212;5.496;2022-12-31T15:41:57;100549.16;;;12.74;100.00
69630;BME280;56857;52.212;5.496;2022-12-31T15:49:44;100548.50;;;12.72;100.00
69630;BME280;56857;52.212;5.496;2022-12-31T15:52:21;100562.63;;;12.72;100.00
69630;BME280;56857;52.212;5.496;2022-12-31T15:54:53;100567.75;;;12.74;100.00
69630;BME280;56857;52.212;5.496;2022-12-31T15:57:32;100562.25;;;12.75;100.00
69630;BME280;56857;52.212;5.496;2022-12-31T16:00:05;100556.97;;;12.82;100.00
69630;BME280;56857;52.212;5.496;2022-12-31T16:02:32;100562.13;;;12.84;100.00
69630;BME280;56857;52.212;5.496;2022-12-31T16:04:59;100564.78;;;12.84;100.00
69630;BME280;56857;52.212;5.496;2022-12-31T16:07:26;100576.88;;;12.86;100.00
69630;BME280;56857;52.212;5.496;2022-12-31T16:09:55;100552.75;;;12.88;100.00
69630;BME280;56857;52.212;5.496;2022-12-31T16:12:25;100558.31;;;12.93;100.00
69630;BME280;56857;52.212;5.496;2022-12-31T16:14:53;100554.19;;;12.90;100.00
69630;BME280;56857;52.212;5.496;2022-12-31T16:17:34;100558.69;;;12.90;100.00
69630;BME280;56857;52.212;5.496;2022-12-31T16:20:20;100563.00;;;12.91;100.00
69630;BME280;56857;52.212;5.496;2022-12-31T16:22:53;100563.81;;;12.91;100.00
69630;BME280;56857;52.212;5.496;2022-12-31T16:25:19;100559.56;;;12.97;100.00
69630;BME280;56857;52.212;5.496;2022-12-31T16:27:48;100548.72;;;12.98;100.00
69630;BME280;56857;52.212;5.496;2022-12-31T16:30:26;100541.75;;;12.97;100.00
69630;BME280;56857;52.212;5.496;2022-12-31T16:32:55;100547.28;;;12.96;100.00
69630;BME280;56857;52.212;5.496;2022-12-31T16:37:59;100555.28;;;12.96;100.00
69630;BME280;56857;52.212;5.496;2022-12-31T16:40:25;100545.69;;;13.02;100.00
69630;BME280;56857;52.212;5.496;2022-12-31T16:42:51;100537.69;;;13.02;100.00
69630;BME280;56857;52.212;5.496;2022-12-31T16:45:27;100535.25;;;13.00;100.00
69630;BME280;56857;52.212;5.496;2022-12-31T16:47:53;100545.25;;;12.98;100.00
69630;BME280;56857;52.212;5.496;2022-12-31T16:50:22;100539.31;;;12.96;100.00
69630;BME280;56857;52.212;5.496;2022-12-31T16:52:49;100541.75;;;12.97;100.00
69630;BME280;56857;52.212;5.496;2022-12-31T16:55:27;100544.03;;;13.01;100.00
69630;BME280;56857;52.212;5.496;2022-12-31T16:57:59;100550.19;;;13.01;100.00
69630;BME280;56857;52.212;5.496;2022-12-31T17:00:26;100540.19;;;13.03;100.00
69630;BME280;56857;52.212;5.496;2022-12-31T17:02:58;100554.31;;;13.04;100.00
69630;BME280;56857;52.212;5.496;2022-12-31T17:05:26;100532.84;;;13.05;100.00
69630;BME280;56857;52.212;5.496;2022-12-31T17:07:53;100510.91;;;13.03;100.00
69630;BME280;56857;52.212;5.496;2022-12-31T17:10:33;100534.84;;;13.03;100.00
69630;BME280;56857;52.212;5.496;2022-12-31T17:13:01;100535.88;;;13.02;100.00
69630;BME280;56857;52.212;5.496;2022-12-31T17:15:40;100538.94;;;12.99;100.00
69630;BME280;56857;52.212;5.496;2022-12-31T17:18:06;100541.13;;;12.95;100.00